createdAt,value
2019-01-10T00:02:02.244Z,3.15
2019-01-10T00:04:30.462Z,2.10
2019-01-10T00:06:58.665Z,1.60
2019-01-10T00:09:26.835Z,1.50
2019-01-10T00:11:55.021Z,2.13
2019-01-10T00:14:23.192Z,1.60
2019-01-10T00:16:51.377Z,2.05
2019-01-10T00:19:19.552Z,2.07
2019-01-10T00:21:47.728Z,3.75
2019-01-10T00:24:15.920Z,4.03
2019-01-10T00:26:44.117Z,2.07
2019-01-10T00:29:12.301Z,1.80
2019-01-10T00:31:40.469Z,2.10
2019-01-10T00:34:08.705Z,1.63
2019-01-10T00:36:36.902Z,4.13
2019-01-10T00:39:05.936Z,1.97
2019-01-10T00:41:34.188Z,1.90
2019-01-10T00:44:02.375Z,2.57
2019-01-10T00:46:30.568Z,1.20
2019-01-10T00:48:58.770Z,1.27
2019-01-10T00:51:26.931Z,2.30
2019-01-10T00:53:55.168Z,2.10
2019-01-10T00:56:23.365Z,3.00
2019-01-10T00:58:51.528Z,1.27
2019-01-10T01:01:19.732Z,1.20
2019-01-10T01:03:48.917Z,1.40
2019-01-10T01:06:17.083Z,2.03
2019-01-10T01:08:45.292Z,1.77
2019-01-10T01:11:13.493Z,2.65
2019-01-10T01:13:41.675Z,1.60
2019-01-10T01:16:09.883Z,2.10
2019-01-10T01:18:38.065Z,2.63
2019-01-10T01:21:06.248Z,1.10
2019-01-10T01:23:36.122Z,1.20
2019-01-10T01:26:04.404Z,1.90
2019-01-10T01:28:32.574Z,1.60
2019-01-10T01:31:00.785Z,3.60
2019-01-10T01:33:29.040Z,1.40
2019-01-10T01:35:57.255Z,1.47
2019-01-10T01:38:25.501Z,3.93
2019-01-10T01:40:53.733Z,1.73
2019-01-10T01:43:21.896Z,5.33
2019-01-10T01:45:50.075Z,1.70
2019-01-10T01:48:18.303Z,1.77
2019-01-10T01:50:46.536Z,3.67
2019-01-10T01:53:14.745Z,3.35
2019-01-10T01:55:42.914Z,1.70
2019-01-10T01:58:11.093Z,2.10
2019-01-10T02:00:39.550Z,2.40
2019-01-10T02:03:07.715Z,4.20
2019-01-10T02:05:35.898Z,1.90
2019-01-10T02:08:04.065Z,2.13
2019-01-10T02:10:32.325Z,4.35
2019-01-10T02:13:00.523Z,1.37
2019-01-10T02:15:28.708Z,3.40
2019-01-10T02:17:57.789Z,3.27
2019-01-10T02:20:25.993Z,2.43
2019-01-10T02:22:54.177Z,3.05
2019-01-10T02:25:22.381Z,2.90
2019-01-10T02:27:50.616Z,2.55
2019-01-10T02:30:19.987Z,2.90
2019-01-10T02:32:48.188Z,2.07
2019-01-10T02:35:16.670Z,2.60
2019-01-10T02:37:44.877Z,5.10
2019-01-10T02:40:13.505Z,2.57
2019-01-10T02:42:41.709Z,1.97
2019-01-10T02:45:11.549Z,1.80
2019-01-10T02:47:39.728Z,2.15
2019-01-10T02:50:09.435Z,3.90
2019-01-10T02:52:37.649Z,3.80
2019-01-10T02:55:06.789Z,4.60
2019-01-10T02:57:34.973Z,4.90
2019-01-10T03:00:04.957Z,4.00
2019-01-10T03:02:33.186Z,2.40
2019-01-10T03:05:01.396Z,2.53
2019-01-10T03:07:29.628Z,3.50
2019-01-10T03:09:57.856Z,6.85
2019-01-10T03:12:26.088Z,3.00
2019-01-10T03:14:54.298Z,4.95
2019-01-10T03:17:22.548Z,4.80
2019-01-10T03:19:50.766Z,4.70
2019-01-10T03:22:18.956Z,3.50
2019-01-10T03:24:47.137Z,3.90
2019-01-10T03:27:15.348Z,2.40
2019-01-10T03:29:43.516Z,5.10
2019-01-10T03:32:12.661Z,4.50
2019-01-10T03:34:40.873Z,5.40
2019-01-10T03:37:09.081Z,7.27
2019-01-10T03:39:37.281Z,3.83
2019-01-10T03:42:05.460Z,5.30
2019-01-10T03:44:34.428Z,3.15
2019-01-10T03:47:02.996Z,3.15
2019-01-10T03:49:31.197Z,2.77
2019-01-10T03:51:59.377Z,3.85
2019-01-10T03:54:27.585Z,2.05
2019-01-10T03:56:55.789Z,1.65
2019-01-10T03:59:24.073Z,2.83
2019-01-10T04:01:52.342Z,3.37
2019-01-10T04:04:20.534Z,4.70
2019-01-10T04:06:48.710Z,2.55
2019-01-10T04:09:16.911Z,3.65
2019-01-10T04:11:45.125Z,4.00
2019-01-10T04:14:13.283Z,2.20
2019-01-10T04:16:41.476Z,3.07
2019-01-10T04:19:09.689Z,2.30
2019-01-10T04:21:37.855Z,2.40
2019-01-10T04:24:06.043Z,4.50
2019-01-10T04:26:34.245Z,3.80
2019-01-10T04:31:29.845Z,1.20
2019-01-10T04:36:26.296Z,4.10
2019-01-10T04:38:54.529Z,1.95
2019-01-10T04:41:22.711Z,1.80
2019-01-10T04:43:51.124Z,4.60
2019-01-10T04:46:19.316Z,6.10
2019-01-10T04:48:47.492Z,2.80
2019-01-10T04:51:15.708Z,2.60
2019-01-10T04:53:43.875Z,2.30
2019-01-10T04:56:12.117Z,1.90
2019-01-10T04:58:40.290Z,4.50
2019-01-10T05:01:08.498Z,4.65
2019-01-10T05:06:04.094Z,2.70
2019-01-10T05:08:32.279Z,4.70
2019-01-10T05:11:00.449Z,6.10
2019-01-10T05:13:28.669Z,2.70
2019-01-10T05:18:24.290Z,4.20
2019-01-10T05:20:52.487Z,3.80
2019-01-10T05:23:22.199Z,2.00
2019-01-10T05:28:17.811Z,3.45
2019-01-10T05:30:46.013Z,4.10
2019-01-10T05:35:41.596Z,4.10
2019-01-10T05:38:09.801Z,7.50
2019-01-10T05:40:38.028Z,3.70
2019-01-10T05:45:33.593Z,5.25
2019-01-10T05:48:01.782Z,5.80
2019-01-10T05:50:29.965Z,3.60
2019-01-10T05:52:58.142Z,6.40
2019-01-10T05:55:26.350Z,4.90
2019-01-10T05:57:54.560Z,6.00
2019-01-10T06:05:17.648Z,3.60
2019-01-10T06:07:45.862Z,10.97
2019-01-10T06:10:15.709Z,4.80
2019-01-10T06:15:12.554Z,10.50
2019-01-10T06:17:40.769Z,3.30
2019-01-10T06:20:10.348Z,4.00
2019-01-10T06:22:38.565Z,5.60
2019-01-10T06:25:06.773Z,9.23
2019-01-10T06:27:35.049Z,4.20
2019-01-10T06:30:03.785Z,7.60
2019-01-10T06:32:31.968Z,6.00
2019-01-10T06:35:00.188Z,5.30
2019-01-10T06:37:28.448Z,6.55
2019-01-10T06:44:52.012Z,7.40
2019-01-10T06:47:20.233Z,10.70
2019-01-10T06:57:10.456Z,5.20
2019-01-10T07:16:53.653Z,3.70
2019-01-10T07:19:30.233Z,3.77
2019-01-10T07:21:58.449Z,6.00
2019-01-10T07:24:26.724Z,5.85
2019-01-10T07:26:57.745Z,4.33
2019-01-10T07:29:25.916Z,12.13
2019-01-10T07:31:55.670Z,3.70
2019-01-10T07:34:23.871Z,4.70
2019-01-10T07:41:46.878Z,5.10
2019-01-10T07:46:46.002Z,7.00
2019-01-10T08:18:51.449Z,4.10
2019-01-10T08:38:30.984Z,5.75
2019-01-10T08:40:59.175Z,4.60
2019-01-10T08:43:27.363Z,3.30
2019-01-10T08:48:22.882Z,4.60
2019-01-10T08:53:21.637Z,5.10
2019-01-10T08:55:49.373Z,6.00
2019-01-10T08:58:17.541Z,2.43
2019-01-10T09:00:45.773Z,4.55
2019-01-10T09:03:13.969Z,6.87
2019-01-10T09:05:42.135Z,8.40
2019-01-10T09:10:40.390Z,2.50
2019-01-10T09:13:08.035Z,2.80
2019-01-10T09:15:36.222Z,3.10
2019-01-10T09:20:31.765Z,3.40
2019-01-10T09:22:59.940Z,2.80
2019-01-10T09:25:28.108Z,5.90
2019-01-10T09:27:56.323Z,4.35
2019-01-10T09:30:24.498Z,4.90
2019-01-10T09:32:52.671Z,3.50
2019-01-10T09:35:20.848Z,2.95
2019-01-10T09:55:00.449Z,3.10
2019-01-10T10:07:18.147Z,3.10
2019-01-10T10:12:13.658Z,4.20
2019-01-10T10:19:37.262Z,4.30
2019-01-10T10:22:05.478Z,2.50
2019-01-10T10:24:33.639Z,3.23
2019-01-10T10:27:01.853Z,2.47
2019-01-10T10:29:30.019Z,6.10
2019-01-10T10:31:58.277Z,3.13
2019-01-10T10:34:26.440Z,3.63
2019-01-10T10:36:54.645Z,3.43
2019-01-10T10:39:22.820Z,2.17
2019-01-10T10:41:51.111Z,3.20
2019-01-10T10:44:19.394Z,2.60
2019-01-10T10:46:47.591Z,2.07
2019-01-10T10:49:15.799Z,2.50
2019-01-10T10:51:43.996Z,4.67
2019-01-10T10:54:12.245Z,3.13
2019-01-10T10:56:40.416Z,2.57
2019-01-10T10:59:08.623Z,1.90
2019-01-10T11:01:36.809Z,1.60
2019-01-10T11:04:04.988Z,4.63
2019-01-10T11:06:33.167Z,3.25
2019-01-10T11:09:09.030Z,5.77
2019-01-10T11:11:31.272Z,4.23
2019-01-10T11:13:59.478Z,3.90
2019-01-10T11:16:27.660Z,3.87
2019-01-10T11:18:55.846Z,1.73
2019-01-10T11:21:24.040Z,2.70
2019-01-10T11:23:52.253Z,4.73
2019-01-10T11:28:48.709Z,3.33
2019-01-10T11:31:16.916Z,3.40
2019-01-10T11:33:45.121Z,2.20
2019-01-10T11:36:13.329Z,3.10
2019-01-10T11:38:41.544Z,1.95
2019-01-10T11:41:09.813Z,2.70
2019-01-10T11:43:37.991Z,3.20
2019-01-10T11:46:06.196Z,5.63
2019-01-10T11:48:34.417Z,2.80
2019-01-10T11:51:02.616Z,3.00
2019-01-10T11:53:35.406Z,2.10
2019-01-10T11:56:00.706Z,2.83
2019-01-10T11:58:28.993Z,2.70
2019-01-10T12:00:57.261Z,1.70
2019-01-10T12:03:25.448Z,1.60
2019-01-10T12:05:53.619Z,2.80
2019-01-10T12:08:21.837Z,2.47
2019-01-10T12:10:50.072Z,2.90
2019-01-10T12:13:18.304Z,2.35
2019-01-10T12:15:46.486Z,4.80
2019-01-10T12:18:14.657Z,3.80
2019-01-10T12:20:42.870Z,2.75
2019-01-10T12:23:11.043Z,3.07
2019-01-10T12:25:39.215Z,2.80
2019-01-10T12:28:07.432Z,5.23
2019-01-10T12:30:35.604Z,3.43
2019-01-10T12:33:03.881Z,5.07
2019-01-10T12:35:32.085Z,2.23
2019-01-10T12:38:00.269Z,4.83
2019-01-10T12:40:28.473Z,6.43
2019-01-10T12:42:56.656Z,2.40
2019-01-10T12:45:24.859Z,1.80
2019-01-10T12:47:53.126Z,2.10
2019-01-10T12:50:22.383Z,1.97
2019-01-10T12:55:17.953Z,3.50
2019-01-10T13:05:08.293Z,2.90
2019-01-10T13:07:36.490Z,3.83
2019-01-10T13:10:07.093Z,2.33
2019-01-10T13:12:35.305Z,1.87
2019-01-10T13:15:09.032Z,2.80
2019-01-10T13:17:37.237Z,3.40
2019-01-10T13:20:06.705Z,1.80
2019-01-10T13:22:34.925Z,3.23
2019-01-10T13:25:03.159Z,2.37
2019-01-10T13:27:31.351Z,7.97
2019-01-10T13:29:59.519Z,2.57
2019-01-10T13:32:27.733Z,2.00
2019-01-10T13:34:55.950Z,2.50
2019-01-10T13:37:24.152Z,3.50
2019-01-10T13:39:52.398Z,5.03
2019-01-10T13:42:20.580Z,2.50
2019-01-10T13:44:48.747Z,1.60
2019-01-10T13:47:16.975Z,3.20
2019-01-10T13:49:45.253Z,2.90
2019-01-10T13:52:13.420Z,2.70
2019-01-10T13:54:41.629Z,5.67
2019-01-10T13:57:09.796Z,3.30
2019-01-10T13:59:37.988Z,2.67
2019-01-10T14:02:06.188Z,1.10
2019-01-10T14:04:34.364Z,2.20
2019-01-10T14:07:02.544Z,2.87
2019-01-10T14:09:30.728Z,3.20
2019-01-10T14:11:58.932Z,1.47
2019-01-10T14:14:27.176Z,2.33
2019-01-10T14:16:55.356Z,2.70
2019-01-10T14:19:23.565Z,2.27
2019-01-10T14:21:51.746Z,4.23
2019-01-10T14:24:19.957Z,2.10
2019-01-10T14:26:48.135Z,1.70
2019-01-10T14:29:16.332Z,4.87
2019-01-10T14:31:44.519Z,1.80
2019-01-10T14:34:14.200Z,2.40
2019-01-10T14:36:42.580Z,1.43
2019-01-10T14:39:10.824Z,2.03
2019-01-10T14:41:39.037Z,1.37
2019-01-10T14:44:07.207Z,1.83
2019-01-10T14:46:35.396Z,2.07
2019-01-10T14:49:03.756Z,2.03
2019-01-10T14:51:31.973Z,3.20
2019-01-10T14:54:00.154Z,3.47
2019-01-10T14:56:28.342Z,2.00
2019-01-10T14:58:56.633Z,3.20
2019-01-10T15:01:24.905Z,1.77
2019-01-10T15:03:53.125Z,4.10
2019-01-10T15:06:21.397Z,2.80
2019-01-10T15:08:49.570Z,2.13
2019-01-10T15:11:17.812Z,3.83
2019-01-10T15:13:45.995Z,1.73
2019-01-10T15:16:15.680Z,1.80
2019-01-10T15:18:43.885Z,1.67
2019-01-10T15:21:12.064Z,3.23
2019-01-10T15:23:40.266Z,2.20
2019-01-10T15:26:08.439Z,2.90
2019-01-10T15:28:36.653Z,2.00
2019-01-10T15:31:04.828Z,4.73
2019-01-10T15:33:33.000Z,2.90
2019-01-10T15:36:01.244Z,2.70
2019-01-10T15:38:29.416Z,3.30
2019-01-10T15:40:57.630Z,2.57
2019-01-10T15:43:25.837Z,1.70
2019-01-10T15:45:54.004Z,2.10
2019-01-10T15:48:22.252Z,5.20
2019-01-10T15:50:50.483Z,2.00
2019-01-10T15:53:18.667Z,4.63
2019-01-10T15:55:46.851Z,2.45
2019-01-10T15:58:15.033Z,2.03
2019-01-10T16:00:43.212Z,3.50
2019-01-10T16:03:11.400Z,6.20
2019-01-10T16:05:39.572Z,3.93
2019-01-10T16:08:07.751Z,3.33
2019-01-10T16:10:35.957Z,4.83
2019-01-10T16:13:04.121Z,2.30
2019-01-10T16:15:32.337Z,5.80
2019-01-10T16:18:00.512Z,2.63
2019-01-10T16:20:28.767Z,3.57
2019-01-10T16:22:56.982Z,3.83
2019-01-10T16:25:25.195Z,2.40
2019-01-10T16:27:53.388Z,8.50
2019-01-10T16:30:25.508Z,4.30
2019-01-10T16:32:53.717Z,1.73
2019-01-10T16:35:22.012Z,2.83
2019-01-10T16:37:50.437Z,2.20
2019-01-10T16:40:18.880Z,1.63
2019-01-10T16:42:47.063Z,2.30
2019-01-10T16:45:19.689Z,2.10
2019-01-10T16:47:47.970Z,2.77
2019-01-10T16:50:16.346Z,1.97
2019-01-10T16:52:44.515Z,1.57
2019-01-10T16:55:13.192Z,1.50
2019-01-10T16:57:41.417Z,1.97
2019-01-10T17:00:16.851Z,2.47
2019-01-10T17:02:45.031Z,1.60
2019-01-10T17:05:13.245Z,2.13
2019-01-10T17:07:41.444Z,2.43
2019-01-10T17:10:10.835Z,2.40
2019-01-10T17:12:39.000Z,2.40
2019-01-10T17:15:08.980Z,2.77
2019-01-10T17:17:37.802Z,2.90
2019-01-10T17:20:07.679Z,4.70
2019-01-10T17:22:35.902Z,5.30
2019-01-10T17:25:07.544Z,5.17
2019-01-10T17:27:35.757Z,3.50
2019-01-10T17:30:05.463Z,3.93
2019-01-10T17:32:33.663Z,5.40
2019-01-10T17:35:01.866Z,4.30
2019-01-10T17:37:30.032Z,2.30
2019-01-10T17:39:58.247Z,2.60
2019-01-10T17:42:26.485Z,3.20
2019-01-10T17:44:54.730Z,3.03
2019-01-10T17:47:22.933Z,3.70
2019-01-10T17:49:51.133Z,2.90
2019-01-10T17:52:24.962Z,5.00
2019-01-10T17:54:49.351Z,3.77
2019-01-10T17:57:17.569Z,6.03
2019-01-10T17:59:45.760Z,3.73
2019-01-10T18:02:13.942Z,4.47
2019-01-10T18:04:42.142Z,2.80
2019-01-10T18:07:10.377Z,4.27
2019-01-10T18:09:38.557Z,3.53
2019-01-10T18:12:06.731Z,3.90
2019-01-10T18:14:34.931Z,10.10
2019-01-10T18:17:03.104Z,8.00
2019-01-10T18:19:31.282Z,7.60
2019-01-10T18:21:59.468Z,17.87
2019-01-10T18:24:27.689Z,16.10
2019-01-10T18:26:55.986Z,7.20
2019-01-10T18:29:24.169Z,6.97
2019-01-10T18:31:52.343Z,7.27
2019-01-10T18:34:20.532Z,4.90
2019-01-10T18:36:48.743Z,4.57
2019-01-10T18:39:16.932Z,55.13
2019-01-10T18:41:45.127Z,46.13
2019-01-10T18:44:14.299Z,9.93
2019-01-10T18:46:42.482Z,9.70
2019-01-10T18:49:10.664Z,9.60
2019-01-10T18:51:38.869Z,10.47
2019-01-10T18:54:07.085Z,6.83
2019-01-10T18:56:35.285Z,6.63
2019-01-10T18:59:03.493Z,8.10
2019-01-10T19:01:31.693Z,9.60
2019-01-10T19:03:59.876Z,10.40
2019-01-10T19:06:28.090Z,9.27
2019-01-10T19:08:56.301Z,10.20
2019-01-10T19:11:24.500Z,10.43
2019-01-10T19:13:52.764Z,9.17
2019-01-10T19:16:20.968Z,7.40
2019-01-10T19:18:50.207Z,10.50
2019-01-10T19:21:18.657Z,8.50
2019-01-10T19:23:46.831Z,9.67
2019-01-10T19:26:14.992Z,7.90
2019-01-10T19:28:43.183Z,9.13
2019-01-10T19:31:11.405Z,10.80
2019-01-10T19:33:39.605Z,9.60
2019-01-10T19:36:07.793Z,10.90
2019-01-10T19:38:35.968Z,16.17
2019-01-10T19:41:04.245Z,10.67
2019-01-10T19:43:32.448Z,13.40
2019-01-10T19:46:00.662Z,9.80
2019-01-10T19:48:28.873Z,10.20
2019-01-10T19:50:57.082Z,10.87
2019-01-10T19:53:25.305Z,10.60
2019-01-10T19:55:53.554Z,11.97
2019-01-10T19:58:21.769Z,11.60
2019-01-10T20:00:50.020Z,8.07
2019-01-10T20:03:18.213Z,9.53
2019-01-10T20:05:46.501Z,6.55
2019-01-10T20:08:14.706Z,9.30
2019-01-10T20:10:42.883Z,7.00
2019-01-10T20:13:11.081Z,6.70
2019-01-10T20:35:18.283Z,7.53
2019-01-10T20:37:47.335Z,6.60
2019-01-10T20:40:18.928Z,6.97
2019-01-10T20:42:47.122Z,8.03
2019-01-10T20:45:15.363Z,5.80
2019-01-10T20:47:43.551Z,6.70
2019-01-10T20:50:12.745Z,5.63
2019-01-10T20:52:40.928Z,5.00
2019-01-10T20:55:10.690Z,5.80
2019-01-10T20:57:38.856Z,5.03
2019-01-10T21:00:11.694Z,4.80
2019-01-10T21:02:39.860Z,4.60
2019-01-10T21:05:08.344Z,6.50
2019-01-10T21:07:36.549Z,4.17
2019-01-10T21:10:07.042Z,7.40
2019-01-10T21:15:02.885Z,5.40
2019-01-10T21:17:31.273Z,7.77
2019-01-10T21:19:59.449Z,6.67
2019-01-10T21:22:27.659Z,6.90
2019-01-10T21:24:55.828Z,7.23
2019-01-10T21:27:24.008Z,4.90
2019-01-10T21:29:52.213Z,6.50
2019-01-10T21:32:20.395Z,7.30
2019-01-10T21:34:48.567Z,4.37
2019-01-10T21:37:16.781Z,8.60
2019-01-10T21:39:44.967Z,6.03
2019-01-10T21:42:13.198Z,5.75
2019-01-10T21:44:41.369Z,7.67
2019-01-10T21:47:09.564Z,5.43
2019-01-10T21:49:37.784Z,4.40
2019-01-10T21:52:05.985Z,7.00
2019-01-10T21:54:35.807Z,4.60
2019-01-10T21:57:04.964Z,9.40
2019-01-10T21:59:33.181Z,5.00
2019-01-10T22:02:01.353Z,7.13
2019-01-10T22:04:29.583Z,4.53
2019-01-10T22:06:57.790Z,3.90
2019-01-10T22:09:26.011Z,6.00
2019-01-10T22:11:54.192Z,6.13
2019-01-10T22:14:22.364Z,4.27
2019-01-10T22:16:50.584Z,6.87
2019-01-10T22:19:18.796Z,5.00
2019-01-10T22:21:46.979Z,5.10
2019-01-10T22:24:15.185Z,8.37
2019-01-10T22:26:43.390Z,5.43
2019-01-10T22:29:11.725Z,8.90
2019-01-10T22:31:39.913Z,4.90
2019-01-10T22:34:08.113Z,9.73
2019-01-10T22:36:36.284Z,6.57
2019-01-10T22:39:06.364Z,8.45
2019-01-10T22:41:35.611Z,5.77
2019-01-10T22:44:04.002Z,7.80
2019-01-10T22:46:32.177Z,6.90
2019-01-10T22:49:00.352Z,5.80
2019-01-10T22:51:28.528Z,6.30
2019-01-10T22:53:56.707Z,6.17
2019-01-10T22:56:24.889Z,10.10
2019-01-10T22:58:53.061Z,5.40
2019-01-10T23:01:24.415Z,5.20
2019-01-10T23:03:53.041Z,4.93
2019-01-10T23:06:21.241Z,5.37
2019-01-10T23:08:49.411Z,8.60
2019-01-10T23:11:18.069Z,6.20
2019-01-10T23:13:49.454Z,8.50
2019-01-10T23:16:19.180Z,6.53
2019-01-10T23:18:47.360Z,10.27
2019-01-10T23:21:15.539Z,9.00
2019-01-10T23:23:43.747Z,9.07
2019-01-10T23:26:11.953Z,7.25
2019-01-10T23:28:41.488Z,5.33
2019-01-10T23:31:11.343Z,4.90
2019-01-10T23:33:39.630Z,8.40
2019-01-10T23:36:07.834Z,5.70
2019-01-10T23:38:36.034Z,9.50
2019-01-10T23:41:04.339Z,7.90
2019-01-10T23:45:59.962Z,9.77
2019-01-10T23:50:55.599Z,8.80
2019-01-10T23:53:23.818Z,8.77
2019-01-10T23:55:51.988Z,8.30
2019-01-10T23:58:20.179Z,10.87
